Авторазборка «Шрот-разборка»

Шрот-разборка
Львов
ул. Б. Хмельницкого 12
+380967136236
+380935825626
+380993724976

Машины в разборке

Mazda 3 2,0 л (Бензин) 2003-2009 2013-05-30
Mazda 6 2,0 л (Бензин) 2002-2007 2013-05-30
Nissan Almera 1,6 л (Бензин) 2000-2006 2013-05-30
Ford C-Max 1,8 л (Бензин) 2007-2013 2013-05-30
Toyota Camry 3,0 л (Бензин) 2002-2006 2013-05-30
Kia Carens 2,0 л (Бензин) 2006-2012 2013-05-30
Mitsubishi Carisma 1,6 л (Бензин) 1995-2004 2013-05-30
Kia ceed 1,6 л (Бензин) 2006-2011 2013-05-30
Kia Cerato 2,0 л (Бензин) 2004-2009 2013-05-30
Mitsubishi Colt 1,3 л (Бензин) 2002-2012 2013-05-30
Opel Corsa 1,6 л (Бензин) 2006-2012 2013-05-30
Hyundai Coupe 2,0 л (Бензин) 2001-2009 2013-05-30
Honda CR-V 2,0 л (Бензин) 1996-2001 2013-05-30
Honda CR-V 2,0 л (Бензин) 2001-2006 2013-05-30
Chevrolet Cruze 1,8 л (Бензин) 2009-2013 2013-05-30
Land Rover Discovery 4,0 л (Бензин) 2004-2009 2013-05-30
Skoda Fabia 1,2 л (Бензин) 1999-2007 2013-05-30
Skoda Fabia 1,4 л (Бензин) 2007-2012 2013-05-30
Ford Fiesta 1,6 л (Бензин) 2002-2008 2013-05-30
Ford Focus 1,6 л (Бензин) 2004-2011 2013-05-30
Ford Focus 1,8 л (Бензин) 1998-2004 2013-05-30
Subaru Forester 2,5 л (Бензин) 2003-2008 2013-05-30
Ford Fusion 1,4 л (Бензин) 2002-2012 2013-05-30
Hyundai Getz 1,3 л (Бензин) 2002-2013 2013-05-30
Honda HR-V 1,6 л (Бензин) 1999-2005 2013-05-30
Hyundai i30 1,4 л (Бензин) 2007-2012 2013-05-30
Mitsubishi Lancer 1,6 л (Бензин) 2000-2007 2013-05-30
Subaru Legacy 2,5 л (Бензин) 2006-2013 2013-05-30
Kia Magentis 2,0 л (Бензин) 2005-2011 2013-05-30
Nissan Micra 1,3 л (Бензин) 2002-2011 2013-05-30
Ford Mondeo 2,3 л (Дизель) 2007-2013 2013-05-30
Ford Mondeo 1,6 л (Бензин) 2000-2007 2013-05-30
Nissan Murano 3,5 л (Бензин) 2005-2007 2013-05-30
Nissan Note 1,6 л (Бензин) 2006-2009 2013-05-30
Skoda Octavia 1,8 л (Бензин) 2004-2012 2013-05-30
Subaru Outback 3,0 л (Бензин) 2003-2009 2013-05-30
Mitsubishi Pajero 3,2 л (Дизель) 1999-2006 2013-05-30
Nissan Primera 1,8 л (Бензин) 2002-2008 2013-05-30
Nissan Qashqai 2,0 л (Бензин) 2007-2012 2013-05-30
Land Rover Range Rover 4,4 л (Бензин) 2002-2012 2013-05-30
Land Rover Range Rover 4,2 л (Бензин) 2005-2013 2013-05-30
Kia Rio 1,5 л (Дизель) 2005-2010 2013-05-30
Mitsubishi Space Star 1,6 л (Бензин) 1998-2005 2013-05-30
Mercedes Sprinter 312 2,2 л (Дизель) 1995-2006 2013-05-30
Chevrolet Tacuma 2,0 л (Бензин) 2005-2013 2013-05-27
Renault Trafic 1,9 л (Бензин) 2001-2012 2013-05-30
Opel Vectra 2,2 л (Бензин) 2002-2005 2013-05-30
Opel Vectra 2,2 л (Бензин) 2005-2008 2013-05-30
Mercedes Vito 2,2 л (Дизель) 1997-2003 2013-05-30
Opel Vivaro 1,9 л (Дизель) 2001-2009 2013-05-30
Nissan X-Trail 2,0 л (Дизель) 2002-2007 2013-05-30
Jaguar X-type 2,5 л (Бензин) 2001-2009 2013-05-30
Toyota Yaris 1,3 л (Бензин) 2006-2012 2013-05-30